sensor_id;sensor_type;location;lat;lon;timestamp;P1;durP1;ratioP1;P2;durP2;ratioP2
18499;SDS011;9379;52.134;11.576;2023-02-15T00:01:53;22.42;;;15.18;;
18499;SDS011;9379;52.134;11.576;2023-02-15T00:04:22;25.20;;;17.58;;
18499;SDS011;9379;52.134;11.576;2023-02-15T00:07:11;23.90;;;17.70;;
18499;SDS011;9379;52.134;11.576;2023-02-15T00:09:39;26.63;;;18.23;;
18499;SDS011;9379;52.134;11.576;2023-02-15T00:12:05;25.25;;;17.33;;
18499;SDS011;9379;52.134;11.576;2023-02-15T00:14:32;24.73;;;18.27;;
18499;SDS011;9379;52.134;11.576;2023-02-15T00:16:59;26.50;;;18.35;;
18499;SDS011;9379;52.134;11.576;2023-02-15T00:19:27;24.60;;;17.98;;
18499;SDS011;9379;52.134;11.576;2023-02-15T00:21:54;24.90;;;17.17;;
18499;SDS011;9379;52.134;11.576;2023-02-15T00:24:21;23.13;;;17.23;;
18499;SDS011;9379;52.134;11.576;2023-02-15T00:26:48;24.83;;;19.85;;
18499;SDS011;9379;52.134;11.576;2023-02-15T00:29:15;20.77;;;15.68;;
18499;SDS011;9379;52.134;11.576;2023-02-15T00:31:43;25.02;;;17.52;;
18499;SDS011;9379;52.134;11.576;2023-02-15T00:34:11;27.50;;;19.15;;
18499;SDS011;9379;52.134;11.576;2023-02-15T00:36:40;27.27;;;19.83;;
18499;SDS011;9379;52.134;11.576;2023-02-15T00:39:07;28.90;;;18.90;;
18499;SDS011;9379;52.134;11.576;2023-02-15T00:41:34;27.67;;;18.02;;
18499;SDS011;9379;52.134;11.576;2023-02-15T00:44:01;22.95;;;18.35;;
18499;SDS011;9379;52.134;11.576;2023-02-15T00:46:28;26.08;;;17.30;;
18499;SDS011;9379;52.134;11.576;2023-02-15T00:48:55;26.63;;;18.58;;
18499;SDS011;9379;52.134;11.576;2023-02-15T00:51:22;25.10;;;17.67;;
18499;SDS011;9379;52.134;11.576;2023-02-15T00:53:51;25.20;;;17.38;;
18499;SDS011;9379;52.134;11.576;2023-02-15T00:56:18;22.20;;;17.48;;
18499;SDS011;9379;52.134;11.576;2023-02-15T00:58:45;23.27;;;16.20;;
18499;SDS011;9379;52.134;11.576;2023-02-15T01:01:12;25.60;;;16.98;;
18499;SDS011;9379;52.134;11.576;2023-02-15T01:03:40;24.02;;;17.65;;
18499;SDS011;9379;52.134;11.576;2023-02-15T01:06:07;24.90;;;16.95;;
18499;SDS011;9379;52.134;11.576;2023-02-15T01:08:34;25.15;;;17.73;;
18499;SDS011;9379;52.134;11.576;2023-02-15T01:11:04;22.23;;;17.65;;
18499;SDS011;9379;52.134;11.576;2023-02-15T01:13:31;24.40;;;17.60;;
18499;SDS011;9379;52.134;11.576;2023-02-15T01:15:58;28.48;;;19.73;;
18499;SDS011;9379;52.134;11.576;2023-02-15T01:18:25;26.13;;;18.45;;
18499;SDS011;9379;52.134;11.576;2023-02-15T01:20:52;22.55;;;17.27;;
18499;SDS011;9379;52.134;11.576;2023-02-15T01:23:19;24.05;;;15.88;;
18499;SDS011;9379;52.134;11.576;2023-02-15T01:25:46;27.10;;;18.20;;
18499;SDS011;9379;52.134;11.576;2023-02-15T01:28:14;30.67;;;21.23;;
18499;SDS011;9379;52.134;11.576;2023-02-15T01:30:41;21.27;;;16.42;;
18499;SDS011;9379;52.134;11.576;2023-02-15T01:33:08;31.40;;;18.63;;
18499;SDS011;9379;52.134;11.576;2023-02-15T01:35:43;23.52;;;18.33;;
18499;SDS011;9379;52.134;11.576;2023-02-15T01:38:10;23.80;;;16.23;;
18499;SDS011;9379;52.134;11.576;2023-02-15T01:40:37;24.02;;;15.98;;
18499;SDS011;9379;52.134;11.576;2023-02-15T01:43:08;25.48;;;18.27;;
18499;SDS011;9379;52.134;11.576;2023-02-15T01:45:38;30.67;;;18.15;;
18499;SDS011;9379;52.134;11.576;2023-02-15T01:48:11;25.88;;;18.63;;
18499;SDS011;9379;52.134;11.576;2023-02-15T01:50:47;28.73;;;18.05;;
18499;SDS011;9379;52.134;11.576;2023-02-15T01:53:18;27.23;;;19.33;;
18499;SDS011;9379;52.134;11.576;2023-02-15T01:55:50;30.73;;;18.85;;
18499;SDS011;9379;52.134;11.576;2023-02-15T01:58:20;26.00;;;16.85;;
18499;SDS011;9379;52.134;11.576;2023-02-15T02:00:50;21.95;;;17.48;;
18499;SDS011;9379;52.134;11.576;2023-02-15T02:03:16;25.65;;;17.65;;
18499;SDS011;9379;52.134;11.576;2023-02-15T02:05:45;24.85;;;16.88;;
18499;SDS011;9379;52.134;11.576;2023-02-15T02:08:13;19.92;;;15.45;;
18499;SDS011;9379;52.134;11.576;2023-02-15T02:10:39;24.35;;;17.25;;
18499;SDS011;9379;52.134;11.576;2023-02-15T02:13:06;28.92;;;18.92;;
18499;SDS011;9379;52.134;11.576;2023-02-15T02:15:36;29.92;;;21.42;;
18499;SDS011;9379;52.134;11.576;2023-02-15T02:18:12;24.75;;;17.02;;
18499;SDS011;9379;52.134;11.576;2023-02-15T02:21:02;22.35;;;18.58;;
18499;SDS011;9379;52.134;11.576;2023-02-15T02:23:51;27.08;;;18.17;;
18499;SDS011;9379;52.134;11.576;2023-02-15T02:26:56;26.00;;;19.00;;
18499;SDS011;9379;52.134;11.576;2023-02-15T02:29:54;25.33;;;19.30;;
18499;SDS011;9379;52.134;11.576;2023-02-15T02:32:49;23.10;;;17.02;;
18499;SDS011;9379;52.134;11.576;2023-02-15T02:35:33;27.52;;;21.30;;
18499;SDS011;9379;52.134;11.576;2023-02-15T02:38:11;26.13;;;20.00;;
18499;SDS011;9379;52.134;11.576;2023-02-15T02:40:45;24.58;;;16.08;;
18499;SDS011;9379;52.134;11.576;2023-02-15T02:43:20;22.25;;;16.00;;
18499;SDS011;9379;52.134;11.576;2023-02-15T02:45:54;27.02;;;16.05;;
18499;SDS011;9379;52.134;11.576;2023-02-15T02:48:29;31.88;;;19.13;;
18499;SDS011;9379;52.134;11.576;2023-02-15T02:50:58;25.20;;;18.05;;
18499;SDS011;9379;52.134;11.576;2023-02-15T02:53:25;24.35;;;18.70;;
18499;SDS011;9379;52.134;11.576;2023-02-15T02:55:56;26.83;;;19.58;;
18499;SDS011;9379;52.134;11.576;2023-02-15T02:58:26;24.70;;;18.40;;
18499;SDS011;9379;52.134;11.576;2023-02-15T03:01:00;21.15;;;15.45;;
18499;SDS011;9379;52.134;11.576;2023-02-15T03:03:34;31.65;;;21.10;;
18499;SDS011;9379;52.134;11.576;2023-02-15T03:06:04;22.40;;;18.30;;
18499;SDS011;9379;52.134;11.576;2023-02-15T03:08:37;24.00;;;16.98;;
18499;SDS011;9379;52.134;11.576;2023-02-15T03:11:06;28.42;;;19.67;;
18499;SDS011;9379;52.134;11.576;2023-02-15T03:13:34;30.60;;;21.83;;
18499;SDS011;9379;52.134;11.576;2023-02-15T03:16:01;28.85;;;19.25;;
18499;SDS011;9379;52.134;11.576;2023-02-15T03:18:51;21.30;;;15.57;;
18499;SDS011;9379;52.134;11.576;2023-02-15T03:21:25;29.00;;;20.42;;
18499;SDS011;9379;52.134;11.576;2023-02-15T03:23:58;24.65;;;18.38;;
18499;SDS011;9379;52.134;11.576;2023-02-15T03:26:27;30.75;;;20.60;;
18499;SDS011;9379;52.134;11.576;2023-02-15T03:28:56;21.58;;;17.13;;
18499;SDS011;9379;52.134;11.576;2023-02-15T03:31:26;25.75;;;17.45;;
18499;SDS011;9379;52.134;11.576;2023-02-15T03:33:59;24.00;;;16.10;;
18499;SDS011;9379;52.134;11.576;2023-02-15T03:36:30;22.52;;;16.38;;
18499;SDS011;9379;52.134;11.576;2023-02-15T03:39:06;25.73;;;18.25;;
18499;SDS011;9379;52.134;11.576;2023-02-15T03:41:39;31.95;;;17.75;;
18499;SDS011;9379;52.134;11.576;2023-02-15T03:44:11;23.42;;;16.73;;
18499;SDS011;9379;52.134;11.576;2023-02-15T03:46:42;27.17;;;14.45;;
18499;SDS011;9379;52.134;11.576;2023-02-15T03:49:17;26.10;;;15.02;;
18499;SDS011;9379;52.134;11.576;2023-02-15T03:51:48;23.42;;;18.50;;
18499;SDS011;9379;52.134;11.576;2023-02-15T03:54:18;21.92;;;17.77;;
18499;SDS011;9379;52.134;11.576;2023-02-15T03:57:01;25.85;;;19.70;;
18499;SDS011;9379;52.134;11.576;2023-02-15T03:59:45;25.35;;;18.90;;
18499;SDS011;9379;52.134;11.576;2023-02-15T04:02:33;22.10;;;18.13;;
18499;SDS011;9379;52.134;11.576;2023-02-15T04:05:06;25.30;;;16.27;;
18499;SDS011;9379;52.134;11.576;2023-02-15T04:07:32;23.35;;;18.45;;
18499;SDS011;9379;52.134;11.576;2023-02-15T04:09:59;28.35;;;20.55;;
18499;SDS011;9379;52.134;11.576;2023-02-15T04:12:43;22.00;;;16.80;;
18499;SDS011;9379;52.134;11.576;2023-02-15T04:15:11;25.13;;;18.45;;
18499;SDS011;9379;52.134;11.576;2023-02-15T04:17:56;28.30;;;17.90;;
18499;SDS011;9379;52.134;11.576;2023-02-15T04:20:24;23.58;;;16.17;;
18499;SDS011;9379;52.134;11.576;2023-02-15T04:23:08;23.52;;;16.63;;
18499;SDS011;9379;52.134;11.576;2023-02-15T04:25:52;23.58;;;17.77;;
18499;SDS011;9379;52.134;11.576;2023-02-15T04:28:19;26.52;;;20.00;;
18499;SDS011;9379;52.134;11.576;2023-02-15T04:30:46;24.25;;;18.63;;
18499;SDS011;9379;52.134;11.576;2023-02-15T04:33:12;31.42;;;22.00;;
18499;SDS011;9379;52.134;11.576;2023-02-15T04:35:42;22.92;;;17.30;;
18499;SDS011;9379;52.134;11.576;2023-02-15T04:38:10;29.70;;;19.75;;
18499;SDS011;9379;52.134;11.576;2023-02-15T04:40:37;27.65;;;17.60;;
18499;SDS011;9379;52.134;11.576;2023-02-15T04:43:03;33.25;;;19.88;;
18499;SDS011;9379;52.134;11.576;2023-02-15T04:45:30;28.30;;;18.40;;
18499;SDS011;9379;52.134;11.576;2023-02-15T04:47:57;25.58;;;19.08;;
18499;SDS011;9379;52.134;11.576;2023-02-15T04:50:24;25.30;;;17.48;;
18499;SDS011;9379;52.134;11.576;2023-02-15T04:52:52;26.95;;;20.63;;
18499;SDS011;9379;52.134;11.576;2023-02-15T04:55:18;29.27;;;18.33;;
18499;SDS011;9379;52.134;11.576;2023-02-15T04:57:45;36.58;;;25.40;;
18499;SDS011;9379;52.134;11.576;2023-02-15T05:00:12;31.48;;;23.75;;
18499;SDS011;9379;52.134;11.576;2023-02-15T05:02:39;32.53;;;21.10;;
18499;SDS011;9379;52.134;11.576;2023-02-15T05:05:06;28.27;;;21.73;;
18499;SDS011;9379;52.134;11.576;2023-02-15T05:07:34;35.72;;;23.23;;
18499;SDS011;9379;52.134;11.576;2023-02-15T05:10:02;35.58;;;24.88;;
18499;SDS011;9379;52.134;11.576;2023-02-15T05:12:30;29.88;;;22.38;;
18499;SDS011;9379;52.134;11.576;2023-02-15T05:14:56;35.10;;;23.70;;
18499;SDS011;9379;52.134;11.576;2023-02-15T05:17:23;24.92;;;18.58;;
18499;SDS011;9379;52.134;11.576;2023-02-15T05:19:50;35.80;;;23.85;;
18499;SDS011;9379;52.134;11.576;2023-02-15T05:22:17;29.85;;;21.80;;
18499;SDS011;9379;52.134;11.576;2023-02-15T05:24:43;48.33;;;24.75;;
18499;SDS011;9379;52.134;11.576;2023-02-15T05:27:29;38.22;;;24.48;;
18499;SDS011;9379;52.134;11.576;2023-02-15T05:30:13;27.98;;;22.02;;
18499;SDS011;9379;52.134;11.576;2023-02-15T05:32:40;36.45;;;23.95;;
18499;SDS011;9379;52.134;11.576;2023-02-15T05:35:07;32.47;;;21.92;;
18499;SDS011;9379;52.134;11.576;2023-02-15T05:37:33;26.08;;;18.52;;
18499;SDS011;9379;52.134;11.576;2023-02-15T05:40:00;32.38;;;22.63;;
18499;SDS011;9379;52.134;11.576;2023-02-15T05:42:28;38.13;;;23.95;;
18499;SDS011;9379;52.134;11.576;2023-02-15T05:44:55;34.63;;;25.38;;
18499;SDS011;9379;52.134;11.576;2023-02-15T05:47:22;28.92;;;19.58;;
18499;SDS011;9379;52.134;11.576;2023-02-15T05:49:49;37.78;;;24.58;;
18499;SDS011;9379;52.134;11.576;2023-02-15T05:52:15;30.33;;;21.10;;
18499;SDS011;9379;52.134;11.576;2023-02-15T05:54:42;32.25;;;22.30;;
18499;SDS011;9379;52.134;11.576;2023-02-15T05:57:09;27.08;;;21.55;;
18499;SDS011;9379;52.134;11.576;2023-02-15T05:59:37;25.20;;;18.20;;
18499;SDS011;9379;52.134;11.576;2023-02-15T06:02:04;28.75;;;19.75;;
18499;SDS011;9379;52.134;11.576;2023-02-15T06:04:31;33.60;;;22.38;;
18499;SDS011;9379;52.134;11.576;2023-02-15T06:06:59;39.28;;;22.75;;
18499;SDS011;9379;52.134;11.576;2023-02-15T06:09:26;35.58;;;25.17;;
18499;SDS011;9379;52.134;11.576;2023-02-15T06:11:53;31.95;;;23.60;;
18499;SDS011;9379;52.134;11.576;2023-02-15T06:14:20;32.10;;;21.40;;
18499;SDS011;9379;52.134;11.576;2023-02-15T06:16:48;31.13;;;22.67;;
18499;SDS011;9379;52.134;11.576;2023-02-15T06:19:15;32.50;;;22.73;;
18499;SDS011;9379;52.134;11.576;2023-02-15T06:21:42;21.35;;;17.52;;
18499;SDS011;9379;52.134;11.576;2023-02-15T06:24:09;28.52;;;20.73;;
18499;SDS011;9379;52.134;11.576;2023-02-15T06:26:35;30.73;;;21.35;;
18499;SDS011;9379;52.134;11.576;2023-02-15T06:29:02;27.38;;;18.73;;
18499;SDS011;9379;52.134;11.576;2023-02-15T06:31:29;21.67;;;14.60;;
18499;SDS011;9379;52.134;11.576;2023-02-15T06:33:57;23.95;;;16.35;;
18499;SDS011;9379;52.134;11.576;2023-02-15T06:36:26;26.23;;;18.63;;
18499;SDS011;9379;52.134;11.576;2023-02-15T06:38:53;26.90;;;19.33;;
18499;SDS011;9379;52.134;11.576;2023-02-15T06:41:20;34.67;;;20.58;;
18499;SDS011;9379;52.134;11.576;2023-02-15T06:43:46;26.42;;;19.88;;
18499;SDS011;9379;52.134;11.576;2023-02-15T06:46:13;30.73;;;20.58;;
18499;SDS011;9379;52.134;11.576;2023-02-15T06:48:40;35.90;;;21.80;;
18499;SDS011;9379;52.134;11.576;2023-02-15T06:51:08;23.42;;;17.65;;
18499;SDS011;9379;52.134;11.576;2023-02-15T06:53:35;23.23;;;18.55;;
18499;SDS011;9379;52.134;11.576;2023-02-15T06:56:02;25.52;;;19.08;;
18499;SDS011;9379;52.134;11.576;2023-02-15T06:58:31;20.85;;;15.23;;
18499;SDS011;9379;52.134;11.576;2023-02-15T07:00:58;28.13;;;20.55;;
18499;SDS011;9379;52.134;11.576;2023-02-15T07:03:25;21.63;;;16.48;;
18499;SDS011;9379;52.134;11.576;2023-02-15T07:05:53;33.60;;;19.90;;
18499;SDS011;9379;52.134;11.576;2023-02-15T07:08:22;29.90;;;19.52;;
18499;SDS011;9379;52.134;11.576;2023-02-15T07:10:49;29.05;;;16.90;;
18499;SDS011;9379;52.134;11.576;2023-02-15T07:13:16;23.55;;;15.48;;
18499;SDS011;9379;52.134;11.576;2023-02-15T07:15:41;26.77;;;17.75;;
18499;SDS011;9379;52.134;11.576;2023-02-15T07:18:08;17.05;;;14.48;;
18499;SDS011;9379;52.134;11.576;2023-02-15T07:20:36;17.58;;;14.60;;
18499;SDS011;9379;52.134;11.576;2023-02-15T07:23:03;17.30;;;13.57;;
18499;SDS011;9379;52.134;11.576;2023-02-15T07:25:32;22.42;;;16.52;;
18499;SDS011;9379;52.134;11.576;2023-02-15T07:27:59;17.98;;;12.75;;
18499;SDS011;9379;52.134;11.576;2023-02-15T07:30:28;14.75;;;12.02;;
18499;SDS011;9379;52.134;11.576;2023-02-15T07:32:56;16.77;;;13.80;;
18499;SDS011;9379;52.134;11.576;2023-02-15T07:35:45;16.98;;;14.45;;
18499;SDS011;9379;52.134;11.576;2023-02-15T07:38:13;15.43;;;13.45;;
18499;SDS011;9379;52.134;11.576;2023-02-15T07:40:42;16.25;;;14.00;;
18499;SDS011;9379;52.134;11.576;2023-02-15T07:43:09;17.83;;;14.77;;
18499;SDS011;9379;52.134;11.576;2023-02-15T07:45:36;17.77;;;14.38;;
18499;SDS011;9379;52.134;11.576;2023-02-15T07:48:03;14.88;;;11.57;;
18499;SDS011;9379;52.134;11.576;2023-02-15T07:50:31;14.68;;;12.10;;
18499;SDS011;9379;52.134;11.576;2023-02-15T07:52:58;21.52;;;16.10;;
18499;SDS011;9379;52.134;11.576;2023-02-15T07:55:27;20.75;;;15.80;;
18499;SDS011;9379;52.134;11.576;2023-02-15T07:57:56;18.88;;;14.52;;
18499;SDS011;9379;52.134;11.576;2023-02-15T08:00:22;22.55;;;14.73;;
18499;SDS011;9379;52.134;11.576;2023-02-15T08:02:50;14.32;;;12.43;;
18499;SDS011;9379;52.134;11.576;2023-02-15T08:05:38;16.58;;;12.95;;
18499;SDS011;9379;52.134;11.576;2023-02-15T08:08:05;18.02;;;14.15;;
18499;SDS011;9379;52.134;11.576;2023-02-15T08:10:32;16.70;;;14.90;;
18499;SDS011;9379;52.134;11.576;2023-02-15T08:13:18;13.55;;;11.38;;
18499;SDS011;9379;52.134;11.576;2023-02-15T08:15:47;16.38;;;13.02;;
18499;SDS011;9379;52.134;11.576;2023-02-15T08:18:15;19.10;;;15.70;;
18499;SDS011;9379;52.134;11.576;2023-02-15T08:20:42;14.60;;;11.30;;
18499;SDS011;9379;52.134;11.576;2023-02-15T08:23:08;17.20;;;11.27;;
18499;SDS011;9379;52.134;11.576;2023-02-15T08:25:35;15.93;;;12.63;;
18499;SDS011;9379;52.134;11.576;2023-02-15T08:28:02;16.33;;;14.52;;
18499;SDS011;9379;52.134;11.576;2023-02-15T08:30:30;13.48;;;11.73;;
18499;SDS011;9379;52.134;11.576;2023-02-15T08:32:57;11.02;;;9.90;;
18499;SDS011;9379;52.134;11.576;2023-02-15T08:35:24;14.00;;;11.07;;
18499;SDS011;9379;52.134;11.576;2023-02-15T08:37:51;15.63;;;14.02;;
18499;SDS011;9379;52.134;11.576;2023-02-15T08:40:18;16.67;;;11.80;;
18499;SDS011;9379;52.134;11.576;2023-02-15T08:42:45;20.08;;;16.35;;
18499;SDS011;9379;52.134;11.576;2023-02-15T08:45:12;15.18;;;12.45;;
18499;SDS011;9379;52.134;11.576;2023-02-15T08:47:40;14.63;;;12.13;;
18499;SDS011;9379;52.134;11.576;2023-02-15T08:50:07;17.38;;;12.77;;
18499;SDS011;9379;52.134;11.576;2023-02-15T08:52:34;15.25;;;12.23;;
18499;SDS011;9379;52.134;11.576;2023-02-15T08:55:01;24.13;;;15.52;;
18499;SDS011;9379;52.134;11.576;2023-02-15T08:57:28;13.85;;;11.88;;
18499;SDS011;9379;52.134;11.576;2023-02-15T08:59:55;12.07;;;10.68;;
18499;SDS011;9379;52.134;11.576;2023-02-15T09:02:21;14.18;;;12.07;;
18499;SDS011;9379;52.134;11.576;2023-02-15T09:04:50;13.13;;;11.70;;
18499;SDS011;9379;52.134;11.576;2023-02-15T09:07:17;18.52;;;14.68;;
18499;SDS011;9379;52.134;11.576;2023-02-15T09:09:44;17.63;;;14.18;;
18499;SDS011;9379;52.134;11.576;2023-02-15T09:12:12;14.63;;;12.93;;
18499;SDS011;9379;52.134;11.576;2023-02-15T09:14:38;16.02;;;14.35;;
18499;SDS011;9379;52.134;11.576;2023-02-15T09:17:05;14.40;;;10.55;;
18499;SDS011;9379;52.134;11.576;2023-02-15T09:19:32;14.18;;;11.75;;
18499;SDS011;9379;52.134;11.576;2023-02-15T09:22:00;17.73;;;12.13;;
18499;SDS011;9379;52.134;11.576;2023-02-15T09:24:27;16.08;;;12.98;;
18499;SDS011;9379;52.134;11.576;2023-02-15T09:26:58;11.43;;;9.48;;
18499;SDS011;9379;52.134;11.576;2023-02-15T09:29:25;18.80;;;13.95;;
18499;SDS011;9379;52.134;11.576;2023-02-15T09:31:52;20.83;;;16.25;;
18499;SDS011;9379;52.134;11.576;2023-02-15T09:34:20;16.38;;;13.77;;
18499;SDS011;9379;52.134;11.576;2023-02-15T09:36:48;19.25;;;14.02;;
18499;SDS011;9379;52.134;11.576;2023-02-15T09:39:18;12.15;;;10.85;;
18499;SDS011;9379;52.134;11.576;2023-02-15T09:44:55;14.90;;;12.93;;
18499;SDS011;9379;52.134;11.576;2023-02-15T09:50:34;15.63;;;12.07;;
18499;SDS011;9379;52.134;11.576;2023-02-15T09:53:21;13.32;;;11.65;;
18499;SDS011;9379;52.134;11.576;2023-02-15T09:56:00;20.38;;;14.13;;
18499;SDS011;9379;52.134;11.576;2023-02-15T09:58:35;13.60;;;10.35;;
18499;SDS011;9379;52.134;11.576;2023-02-15T10:01:09;14.85;;;13.05;;
18499;SDS011;9379;52.134;11.576;2023-02-15T10:03:47;15.18;;;11.93;;
18499;SDS011;9379;52.134;11.576;2023-02-15T10:06:28;16.42;;;14.43;;
18499;SDS011;9379;52.134;11.576;2023-02-15T10:09:18;16.35;;;14.13;;
18499;SDS011;9379;52.134;11.576;2023-02-15T10:12:24;18.63;;;11.13;;
18499;SDS011;9379;52.134;11.576;2023-02-15T10:15:12;25.65;;;18.05;;
18499;SDS011;9379;52.134;11.576;2023-02-15T10:20:51;23.77;;;15.50;;
18499;SDS011;9379;52.134;11.576;2023-02-15T10:23:32;20.33;;;17.17;;
18499;SDS011;9379;52.134;11.576;2023-02-15T10:26:11;24.58;;;17.38;;
18499;SDS011;9379;52.134;11.576;2023-02-15T10:28:45;39.35;;;22.65;;
18499;SDS011;9379;52.134;11.576;2023-02-15T10:31:17;41.03;;;25.60;;
18499;SDS011;9379;52.134;11.576;2023-02-15T10:33:52;28.27;;;23.10;;
18499;SDS011;9379;52.134;11.576;2023-02-15T10:36:33;36.13;;;22.65;;
18499;SDS011;9379;52.134;11.576;2023-02-15T10:39:20;30.73;;;20.48;;
18499;SDS011;9379;52.134;11.576;2023-02-15T10:41:54;30.20;;;20.50;;
18499;SDS011;9379;52.134;11.576;2023-02-15T10:44:34;27.08;;;19.58;;
18499;SDS011;9379;52.134;11.576;2023-02-15T10:47:17;24.15;;;16.35;;
18499;SDS011;9379;52.134;11.576;2023-02-15T10:50:01;20.75;;;15.50;;
18499;SDS011;9379;52.134;11.576;2023-02-15T10:52:42;22.20;;;15.82;;
18499;SDS011;9379;52.134;11.576;2023-02-15T10:55:24;20.42;;;15.50;;
18499;SDS011;9379;52.134;11.576;2023-02-15T10:58:06;20.63;;;16.90;;
18499;SDS011;9379;52.134;11.576;2023-02-15T11:00:46;23.10;;;17.25;;
18499;SDS011;9379;52.134;11.576;2023-02-15T11:03:22;16.65;;;14.93;;
18499;SDS011;9379;52.134;11.576;2023-02-15T11:06:00;21.05;;;16.48;;
18499;SDS011;9379;52.134;11.576;2023-02-15T11:08:32;23.92;;;16.33;;
18499;SDS011;9379;52.134;11.576;2023-02-15T11:11:02;22.52;;;17.42;;
18499;SDS011;9379;52.134;11.576;2023-02-15T11:13:34;23.55;;;17.80;;
18499;SDS011;9379;52.134;11.576;2023-02-15T11:16:07;26.67;;;18.45;;
18499;SDS011;9379;52.134;11.576;2023-02-15T11:18:41;21.15;;;17.70;;
18499;SDS011;9379;52.134;11.576;2023-02-15T11:21:13;20.55;;;16.20;;
18499;SDS011;9379;52.134;11.576;2023-02-15T11:23:47;17.15;;;14.40;;
18499;SDS011;9379;52.134;11.576;2023-02-15T11:26:15;20.20;;;16.27;;
18499;SDS011;9379;52.134;11.576;2023-02-15T11:28:47;16.25;;;12.50;;
18499;SDS011;9379;52.134;11.576;2023-02-15T11:31:22;15.13;;;13.23;;
18499;SDS011;9379;52.134;11.576;2023-02-15T11:33:52;24.08;;;14.85;;
18499;SDS011;9379;52.134;11.576;2023-02-15T11:36:25;18.27;;;14.18;;
18499;SDS011;9379;52.134;11.576;2023-02-15T11:38:56;16.65;;;13.00;;
18499;SDS011;9379;52.134;11.576;2023-02-15T11:41:29;13.38;;;10.32;;
18499;SDS011;9379;52.134;11.576;2023-02-15T11:44:03;15.23;;;13.80;;
18499;SDS011;9379;52.134;11.576;2023-02-15T11:46:36;13.60;;;12.07;;
18499;SDS011;9379;52.134;11.576;2023-02-15T11:49:04;13.45;;;12.18;;
18499;SDS011;9379;52.134;11.576;2023-02-15T11:51:34;15.07;;;11.45;;
18499;SDS011;9379;52.134;11.576;2023-02-15T11:54:02;13.90;;;11.65;;
18499;SDS011;9379;52.134;11.576;2023-02-15T11:56:30;14.35;;;11.98;;
18499;SDS011;9379;52.134;11.576;2023-02-15T11:59:00;15.30;;;13.77;;
18499;SDS011;9379;52.134;11.576;2023-02-15T12:01:36;17.30;;;13.07;;
18499;SDS011;9379;52.134;11.576;2023-02-15T12:04:07;15.20;;;12.73;;
18499;SDS011;9379;52.134;11.576;2023-02-15T12:06:41;13.20;;;11.15;;
18499;SDS011;9379;52.134;11.576;2023-02-15T12:09:14;13.48;;;11.70;;
18499;SDS011;9379;52.134;11.576;2023-02-15T12:11:46;16.45;;;12.48;;
18499;SDS011;9379;52.134;11.576;2023-02-15T12:14:13;15.43;;;12.75;;
18499;SDS011;9379;52.134;11.576;2023-02-15T12:16:43;15.05;;;11.95;;
18499;SDS011;9379;52.134;11.576;2023-02-15T12:19:18;16.10;;;13.07;;
18499;SDS011;9379;52.134;11.576;2023-02-15T12:21:53;15.07;;;12.27;;
18499;SDS011;9379;52.134;11.576;2023-02-15T12:24:21;16.55;;;13.70;;
18499;SDS011;9379;52.134;11.576;2023-02-15T12:26:56;15.38;;;13.38;;
18499;SDS011;9379;52.134;11.576;2023-02-15T12:29:25;15.57;;;12.82;;
18499;SDS011;9379;52.134;11.576;2023-02-15T12:31:57;22.05;;;13.32;;
18499;SDS011;9379;52.134;11.576;2023-02-15T12:34:25;16.30;;;14.63;;
18499;SDS011;9379;52.134;11.576;2023-02-15T12:36:56;18.17;;;14.00;;
18499;SDS011;9379;52.134;11.576;2023-02-15T12:39:25;15.35;;;12.02;;
18499;SDS011;9379;52.134;11.576;2023-02-15T12:41:57;16.75;;;13.88;;
18499;SDS011;9379;52.134;11.576;2023-02-15T12:44:27;16.20;;;14.35;;
18499;SDS011;9379;52.134;11.576;2023-02-15T12:46:58;18.45;;;14.88;;
18499;SDS011;9379;52.134;11.576;2023-02-15T12:49:26;20.77;;;15.88;;
18499;SDS011;9379;52.134;11.576;2023-02-15T12:51:55;19.95;;;14.35;;
18499;SDS011;9379;52.134;11.576;2023-02-15T12:54:28;17.30;;;14.82;;
18499;SDS011;9379;52.134;11.576;2023-02-15T12:59:52;18.00;;;11.10;;
18499;SDS011;9379;52.134;11.576;2023-02-15T13:02:23;14.52;;;11.20;;
18499;SDS011;9379;52.134;11.576;2023-02-15T13:04:52;14.85;;;12.32;;
18499;SDS011;9379;52.134;11.576;2023-02-15T13:07:21;16.30;;;11.57;;
18499;SDS011;9379;52.134;11.576;2023-02-15T13:09:48;9.68;;;8.23;;
18499;SDS011;9379;52.134;11.576;2023-02-15T13:12:17;11.98;;;9.13;;
18499;SDS011;9379;52.134;11.576;2023-02-15T13:14:47;15.35;;;9.38;;
18499;SDS011;9379;52.134;11.576;2023-02-15T13:17:17;13.57;;;10.23;;
18499;SDS011;9379;52.134;11.576;2023-02-15T13:19:51;8.90;;;7.85;;
18499;SDS011;9379;52.134;11.576;2023-02-15T13:22:21;10.90;;;9.60;;
18499;SDS011;9379;52.134;11.576;2023-02-15T13:24:54;10.25;;;9.25;;
18499;SDS011;9379;52.134;11.576;2023-02-15T13:27:24;11.50;;;10.40;;
18499;SDS011;9379;52.134;11.576;2023-02-15T13:30:00;9.80;;;8.77;;
18499;SDS011;9379;52.134;11.576;2023-02-15T13:32:30;8.98;;;7.95;;
18499;SDS011;9379;52.134;11.576;2023-02-15T13:35:03;13.95;;;10.07;;
18499;SDS011;9379;52.134;11.576;2023-02-15T13:37:37;8.70;;;7.45;;
18499;SDS011;9379;52.134;11.576;2023-02-15T13:40:22;8.48;;;7.63;;
18499;SDS011;9379;52.134;11.576;2023-02-15T13:42:52;7.57;;;6.88;;
18499;SDS011;9379;52.134;11.576;2023-02-15T13:45:27;8.93;;;6.50;;
18499;SDS011;9379;52.134;11.576;2023-02-15T13:48:08;6.00;;;5.22;;
18499;SDS011;9379;52.134;11.576;2023-02-15T13:50:50;7.60;;;6.38;;
18499;SDS011;9379;52.134;11.576;2023-02-15T13:53:31;12.18;;;8.52;;
18499;SDS011;9379;52.134;11.576;2023-02-15T13:56:07;12.13;;;9.23;;
18499;SDS011;9379;52.134;11.576;2023-02-15T13:58:54;18.05;;;11.15;;
18499;SDS011;9379;52.134;11.576;2023-02-15T14:01:44;9.27;;;8.32;;
18499;SDS011;9379;52.134;11.576;2023-02-15T14:04:26;9.38;;;8.38;;
18499;SDS011;9379;52.134;11.576;2023-02-15T14:07:25;14.48;;;9.50;;
18499;SDS011;9379;52.134;11.576;2023-02-15T14:10:15;8.93;;;7.22;;
18499;SDS011;9379;52.134;11.576;2023-02-15T14:13:05;7.80;;;6.80;;
18499;SDS011;9379;52.134;11.576;2023-02-15T14:15:44;10.13;;;7.28;;
18499;SDS011;9379;52.134;11.576;2023-02-15T14:18:18;9.77;;;8.10;;
18499;SDS011;9379;52.134;11.576;2023-02-15T14:20:55;8.18;;;7.53;;
18499;SDS011;9379;52.134;11.576;2023-02-15T14:23:36;8.80;;;6.38;;
18499;SDS011;9379;52.134;11.576;2023-02-15T14:26:11;7.15;;;6.40;;
18499;SDS011;9379;52.134;11.576;2023-02-15T14:28:44;11.30;;;8.80;;
18499;SDS011;9379;52.134;11.576;2023-02-15T14:31:15;6.68;;;5.85;;
18499;SDS011;9379;52.134;11.576;2023-02-15T14:33:52;9.35;;;6.97;;
18499;SDS011;9379;52.134;11.576;2023-02-15T14:36:21;7.72;;;6.05;;
18499;SDS011;9379;52.134;11.576;2023-02-15T14:38:54;7.15;;;6.45;;
18499;SDS011;9379;52.134;11.576;2023-02-15T14:41:32;8.70;;;7.82;;
18499;SDS011;9379;52.134;11.576;2023-02-15T14:44:07;8.35;;;7.32;;
18499;SDS011;9379;52.134;11.576;2023-02-15T14:46:41;6.43;;;5.75;;
18499;SDS011;9379;52.134;11.576;2023-02-15T14:49:12;7.57;;;6.82;;
18499;SDS011;9379;52.134;11.576;2023-02-15T14:51:55;6.82;;;5.65;;
18499;SDS011;9379;52.134;11.576;2023-02-15T14:57:27;5.32;;;4.65;;
18499;SDS011;9379;52.134;11.576;2023-02-15T14:59:57;6.13;;;5.53;;
18499;SDS011;9379;52.134;11.576;2023-02-15T15:02:29;5.88;;;5.35;;
18499;SDS011;9379;52.134;11.576;2023-02-15T15:05:07;7.47;;;5.80;;